createdAt,value
2022-09-05T00:01:27.448Z,95392.38
2022-09-05T00:04:03.472Z,95392.03
2022-09-05T00:06:53.145Z,95385.72
2022-09-05T00:09:27.850Z,95390.13
2022-09-05T00:12:01.585Z,95392.00
2022-09-05T00:15:14.572Z,95387.38
2022-09-05T00:18:48.418Z,95383.78
2022-09-05T00:24:27.840Z,95378.00
2022-09-05T00:24:28.797Z,95380.19
2022-09-05T00:26:37.449Z,95365.59
2022-09-05T00:29:54.065Z,95367.53
2022-09-05T00:32:16.231Z,95372.47
2022-09-05T00:35:06.192Z,95368.66
2022-09-05T00:37:38.111Z,95369.72
2022-09-05T00:40:18.521Z,95371.06
2022-09-05T00:42:49.051Z,95371.63
2022-09-05T00:45:20.761Z,95369.66
2022-09-05T00:47:50.027Z,95360.56
2022-09-05T00:50:23.150Z,95368.50
2022-09-05T00:53:06.710Z,95378.66
2022-09-05T00:55:40.094Z,95381.44
2022-09-05T00:58:34.914Z,95387.19
2022-09-05T01:01:13.782Z,95375.13
2022-09-05T01:03:56.235Z,95384.16
2022-09-05T01:06:37.966Z,95378.38
2022-09-05T01:09:31.354Z,95377.56
2022-09-05T01:12:20.173Z,95381.63
2022-09-05T01:15:14.673Z,95378.59
2022-09-05T01:18:26.149Z,95386.56
2022-09-05T01:21:10.515Z,95382.72
2022-09-05T01:23:50.370Z,95384.91
2022-09-05T01:26:34.639Z,95379.94
2022-09-05T01:29:17.805Z,95378.84
2022-09-05T01:31:56.839Z,95379.34
2022-09-05T01:34:31.555Z,95367.31
2022-09-05T01:37:04.760Z,95381.00
2022-09-05T01:40:12.035Z,95370.56
2022-09-05T01:42:36.950Z,95366.44
2022-09-05T01:45:10.955Z,95376.84
2022-09-05T01:47:50.242Z,95376.28
2022-09-05T01:50:33.194Z,95371.28
2022-09-05T01:53:26.248Z,95381.69
2022-09-05T01:56:12.072Z,95378.66
2022-09-05T01:58:55.085Z,95383.28
2022-09-05T02:01:32.276Z,95386.78
2022-09-05T02:04:13.304Z,95378.28
2022-09-05T02:06:44.165Z,95384.00
2022-09-05T02:09:22.588Z,95384.56
2022-09-05T02:11:54.180Z,95375.25
2022-09-05T02:14:33.997Z,95380.72
2022-09-05T02:17:27.316Z,95379.59
2022-09-05T02:20:09.674Z,95380.94
2022-09-05T02:22:44.173Z,95378.44
2022-09-05T02:25:18.131Z,95388.59
2022-09-05T02:28:05.398Z,95377.06
2022-09-05T02:30:36.957Z,95381.16
2022-09-05T02:33:22.292Z,95390.47
2022-09-05T02:35:54.355Z,95381.91
2022-09-05T02:45:00.222Z,95386.84
2022-09-05T02:45:08.929Z,95388.75
2022-09-05T02:45:17.334Z,95379.38
2022-09-05T02:47:06.522Z,95379.94
2022-09-05T02:52:53.538Z,95378.84
2022-09-05T02:57:37.624Z,95384.25
2022-09-05T02:57:39.664Z,95373.78
2022-09-05T02:58:47.837Z,95380.34
2022-09-05T03:01:29.508Z,95380.34
2022-09-05T03:04:07.763Z,95390.75
2022-09-05T03:06:40.911Z,95383.66
2022-09-05T03:09:20.793Z,95386.38
2022-09-05T03:12:28.612Z,95389.94
2022-09-05T03:15:22.750Z,95381.16
2022-09-05T03:18:25.002Z,95384.97
2022-09-05T03:21:30.818Z,95387.47
2022-09-05T03:24:07.119Z,95378.72
2022-09-05T03:26:50.982Z,95371.34
2022-09-05T03:29:38.419Z,95371.03
2022-09-05T03:32:48.936Z,95380.00
2022-09-05T03:35:38.050Z,95385.19
2022-09-05T03:38:33.524Z,95383.81
2022-09-05T03:41:11.823Z,95380.81
2022-09-05T03:44:06.892Z,95379.09
2022-09-05T03:46:51.543Z,95380.16
2022-09-05T03:53:55.023Z,95373.63
2022-09-05T03:57:14.630Z,95377.72
2022-09-05T03:57:19.610Z,95366.16
2022-09-05T03:58:59.784Z,95369.63
2022-09-05T04:04:03.663Z,95372.19
2022-09-05T04:08:18.259Z,95367.03
2022-09-05T04:08:23.961Z,95365.03
2022-09-05T04:10:14.422Z,95361.47
2022-09-05T04:12:51.375Z,95358.94
2022-09-05T04:15:31.343Z,95356.63
2022-09-05T04:18:04.021Z,95348.13
2022-09-05T04:20:40.653Z,95353.16
2022-09-05T04:23:18.902Z,95360.59
2022-09-05T04:26:11.464Z,95356.94
2022-09-05T04:28:53.786Z,95362.72
2022-09-05T04:31:30.490Z,95365.72
2022-09-05T04:34:09.255Z,95366.56
2022-09-05T04:36:38.308Z,95372.34
2022-09-05T04:39:25.396Z,95371.00
2022-09-05T04:41:55.399Z,95369.63
2022-09-05T04:44:27.199Z,95383.28
2022-09-05T04:46:57.685Z,95378.13
2022-09-05T04:49:27.248Z,95387.66
2022-09-05T04:52:33.782Z,95391.25
2022-09-05T04:55:04.070Z,95384.09
2022-09-05T04:57:36.059Z,95390.41
2022-09-05T05:06:05.654Z,95392.88
2022-09-05T05:06:09.239Z,95401.94
2022-09-05T05:06:11.745Z,95393.22
2022-09-05T05:08:48.067Z,95402.94
2022-09-05T05:17:56.571Z,95402.28
2022-09-05T05:18:01.868Z,95401.88
2022-09-05T05:18:15.463Z,95403.44
2022-09-05T05:20:40.287Z,95401.50
2022-09-05T05:22:57.108Z,95402.94
2022-09-05T05:25:25.277Z,95412.63
2022-09-05T05:28:08.647Z,95404.81
2022-09-05T05:30:41.049Z,95404.63
2022-09-05T05:33:23.851Z,95407.19
2022-09-05T05:35:53.520Z,95412.22
2022-09-05T05:38:28.671Z,95413.41
2022-09-05T05:41:01.330Z,95423.91
2022-09-05T05:43:35.185Z,95423.44
2022-09-05T05:46:03.193Z,95428.47
2022-09-05T05:48:38.204Z,95431.25
2022-09-05T05:51:20.207Z,95424.50
2022-09-05T05:54:06.245Z,95440.28
2022-09-05T05:56:41.018Z,95436.88
2022-09-05T05:59:30.977Z,95423.06
2022-09-05T06:02:20.442Z,95431.94
2022-09-05T06:05:16.295Z,95438.63
2022-09-05T06:08:30.561Z,95431.53
2022-09-05T06:14:58.126Z,95440.09
2022-09-05T06:15:04.289Z,95434.50
2022-09-05T06:17:58.431Z,95441.44
2022-09-05T06:22:09.196Z,95439.34
2022-09-05T06:24:08.215Z,95436.94
2022-09-05T06:26:50.831Z,95442.41
2022-09-05T06:29:34.268Z,95439.69
2022-09-05T06:32:17.586Z,95436.72
2022-09-05T06:35:00.005Z,95437.03
2022-09-05T06:37:37.299Z,95447.53
2022-09-05T06:40:13.886Z,95441.81
2022-09-05T06:42:59.289Z,95444.63
2022-09-05T06:46:01.069Z,95441.94
2022-09-05T06:48:44.616Z,95441.94
2022-09-05T06:51:33.872Z,95457.63
2022-09-05T06:54:30.493Z,95456.81
2022-09-05T06:57:12.661Z,95451.59
2022-09-05T07:00:24.580Z,95455.44
2022-09-05T07:03:06.555Z,95453.03
2022-09-05T07:05:44.942Z,95458.78
2022-09-05T07:08:36.328Z,95464.81
2022-09-05T07:11:15.714Z,95464.28
2022-09-05T07:13:54.105Z,95466.97
2022-09-05T07:16:37.375Z,95465.84
2022-09-05T07:19:17.932Z,95471.31
2022-09-05T07:21:54.265Z,95472.94
2022-09-05T07:24:53.998Z,95475.09
2022-09-05T07:28:00.132Z,95474.75
2022-09-05T07:30:25.164Z,95475.78
2022-09-05T07:32:54.901Z,95484.31
2022-09-05T07:35:26.779Z,95486.44
2022-09-05T07:38:03.067Z,95484.13
2022-09-05T07:40:31.495Z,95483.53
2022-09-05T07:43:10.213Z,95481.81
2022-09-05T07:45:46.401Z,95483.13
2022-09-05T07:48:41.924Z,95494.22
2022-09-05T07:54:51.708Z,95486.81
2022-09-05T07:57:04.125Z,95486.78
2022-09-05T08:04:17.659Z,95482.28
2022-09-05T08:07:47.175Z,95481.66
2022-09-05T08:51:59.636Z,95446.09
2022-09-05T08:55:04.339Z,95455.59
2022-09-05T08:58:27.042Z,95449.63
2022-09-05T09:02:44.984Z,95450.56
2022-09-05T09:07:51.557Z,95445.56
2022-09-05T09:14:31.103Z,95442.97
2022-09-05T09:17:06.912Z,95444.91
2022-09-05T09:21:02.809Z,95439.97
2022-09-05T09:23:58.323Z,95430.25
2022-09-05T09:30:06.778Z,95439.47
2022-09-05T09:33:07.643Z,95442.16
2022-09-05T09:40:06.469Z,95429.72
2022-09-05T09:46:19.152Z,95432.19
2022-09-05T12:33:14.839Z,95349.16
2022-09-05T12:41:35.630Z,95351.50
2022-09-05T12:42:49.739Z,95354.38
2022-09-05T12:49:35.244Z,95340.91
2022-09-05T12:55:36.634Z,95338.81
2022-09-05T13:03:01.432Z,95338.53
2022-09-05T13:13:59.525Z,95329.75
2022-09-05T13:23:50.542Z,95319.25
2022-09-05T13:26:23.959Z,95320.22
2022-09-05T13:38:10.928Z,95313.16
2022-09-05T13:38:14.753Z,95305.88
2022-09-05T13:40:40.770Z,95306.69
2022-09-05T13:44:25.151Z,95290.38
2022-09-05T13:47:01.040Z,95294.19
2022-09-05T13:52:47.752Z,95290.34
2022-09-05T13:55:23.725Z,95298.50
2022-09-05T13:58:14.098Z,95283.13
2022-09-05T14:01:15.190Z,95289.09
2022-09-05T14:07:46.104Z,95277.91
2022-09-05T14:11:07.577Z,95274.97
2022-09-05T14:13:47.878Z,95277.66
2022-09-05T14:16:43.470Z,95266.91
2022-09-05T14:23:17.872Z,95263.81
2022-09-05T14:25:52.764Z,95255.97
2022-09-05T14:37:43.860Z,95252.25
2022-09-05T14:37:46.137Z,95258.78
2022-09-05T14:38:04.330Z,95265.41
2022-09-05T14:41:11.665Z,95255.97
2022-09-05T14:44:10.455Z,95255.53
2022-09-05T14:47:32.464Z,95270.06
2022-09-05T14:50:28.282Z,95264.75
2022-09-05T14:56:51.618Z,95260.88
2022-09-05T15:02:02.443Z,95261.19
2022-09-05T15:02:58.756Z,95260.63
2022-09-05T15:04:55.154Z,95263.91
2022-09-05T15:07:23.592Z,95252.69
2022-09-05T15:12:16.943Z,95253.53
2022-09-05T15:13:00.623Z,95254.03
2022-09-05T15:15:31.747Z,95246.81
2022-09-05T15:18:04.563Z,95241.34
2022-09-05T15:20:37.168Z,95240.88
2022-09-05T15:23:16.460Z,95225.44
2022-09-05T15:25:47.422Z,95231.91
2022-09-05T15:28:20.721Z,95234.88
2022-09-05T15:30:58.785Z,95233.50
2022-09-05T15:33:29.319Z,95225.56
2022-09-05T15:35:58.310Z,95216.63
2022-09-05T15:38:33.612Z,95221.47
2022-09-05T15:41:20.530Z,95220.03
2022-09-05T15:43:52.419Z,95220.50
2022-09-05T15:46:34.282Z,95221.19
2022-09-05T15:49:05.400Z,95222.75
2022-09-05T15:51:49.539Z,95216.38
2022-09-05T15:54:38.630Z,95233.94
2022-09-05T15:57:17.812Z,95230.56
2022-09-05T15:59:49.148Z,95230.44
2022-09-05T16:02:20.847Z,95233.59
2022-09-05T16:10:26.878Z,95229.16
2022-09-05T16:10:38.972Z,95223.44
2022-09-05T16:11:09.954Z,95220.53
2022-09-05T16:13:36.779Z,95230.97
2022-09-05T16:23:16.999Z,95229.34
2022-09-05T16:23:20.280Z,95231.88
2022-09-05T16:23:30.079Z,95228.75
2022-09-05T16:24:59.409Z,95226.69
2022-09-05T16:27:46.065Z,95228.47
2022-09-05T16:30:21.833Z,95221.72
2022-09-05T16:32:51.933Z,95217.38
2022-09-05T16:35:25.064Z,95223.09
2022-09-05T16:37:57.718Z,95215.00
2022-09-05T16:40:27.951Z,95222.75
2022-09-05T16:42:59.247Z,95207.72
2022-09-05T16:45:32.177Z,95207.00
2022-09-05T16:48:14.215Z,95207.91
2022-09-05T16:50:50.092Z,95206.41
2022-09-05T16:53:32.319Z,95218.09
2022-09-05T16:56:04.199Z,95205.78
2022-09-05T16:58:35.053Z,95203.34
2022-09-05T17:01:14.655Z,95197.25
2022-09-05T17:03:52.189Z,95198.94
2022-09-05T17:06:26.340Z,95196.31
2022-09-05T17:09:12.161Z,95203.88
2022-09-05T17:12:00.063Z,95198.97
2022-09-05T17:14:33.639Z,95194.50
2022-09-05T17:17:36.508Z,95194.00
2022-09-05T17:20:05.837Z,95197.97
2022-09-05T17:26:26.424Z,95206.16
2022-09-05T17:29:30.254Z,95201.09
2022-09-05T17:29:41.334Z,95202.41
2022-09-05T17:31:56.926Z,95195.41
2022-09-05T17:34:50.235Z,95192.44
2022-09-05T17:37:41.457Z,95195.88
2022-09-05T17:40:38.057Z,95201.03
2022-09-05T17:43:07.718Z,95206.75
2022-09-05T17:45:44.799Z,95201.38
2022-09-05T17:48:14.949Z,95198.75
2022-09-05T17:50:51.073Z,95193.81
2022-09-05T17:53:26.648Z,95187.41
2022-09-05T17:56:29.096Z,95200.00
2022-09-05T17:59:08.071Z,95190.00
2022-09-05T18:01:36.078Z,95204.13
2022-09-05T18:04:17.750Z,95194.56
2022-09-05T18:07:00.571Z,95195.31
2022-09-05T18:10:01.462Z,95206.47
2022-09-05T18:13:14.016Z,95208.13
2022-09-05T18:16:02.399Z,95199.78
2022-09-05T18:19:28.494Z,95213.66
2022-09-05T18:21:25.724Z,95215.94
2022-09-05T18:24:01.727Z,95213.44
2022-09-05T18:26:39.142Z,95214.19
2022-09-05T18:32:04.192Z,95215.31
2022-09-05T18:34:43.782Z,95210.63
2022-09-05T18:37:59.325Z,95214.34
2022-09-05T18:40:39.947Z,95212.44
2022-09-05T18:43:15.734Z,95214.44
2022-09-05T18:45:53.071Z,95216.06
2022-09-05T18:48:29.045Z,95210.72
2022-09-05T18:51:13.337Z,95218.81
2022-09-05T18:53:47.528Z,95211.75
2022-09-05T18:56:21.219Z,95216.66
2022-09-05T18:58:59.472Z,95218.66
2022-09-05T19:01:40.895Z,95215.03
2022-09-05T19:04:16.075Z,95211.13
2022-09-05T19:07:07.948Z,95217.91
2022-09-05T19:09:37.356Z,95209.50
2022-09-05T19:12:35.124Z,95216.47
2022-09-05T19:14:57.011Z,95210.22
2022-09-05T19:17:27.493Z,95208.38
2022-09-05T19:20:32.122Z,95210.94
2022-09-05T19:23:10.470Z,95219.75
2022-09-05T19:25:42.247Z,95219.34
2022-09-05T19:36:46.050Z,95215.66
2022-09-05T19:36:48.764Z,95221.50
2022-09-05T19:36:55.713Z,95217.47
2022-09-05T19:37:06.831Z,95214.00
2022-09-05T19:43:24.171Z,95221.41
2022-09-05T19:47:25.970Z,95218.72
2022-09-05T19:47:37.387Z,95217.06
2022-09-05T19:48:18.134Z,95214.41
2022-09-05T19:50:47.269Z,95206.56
2022-09-05T19:53:16.893Z,95207.16
2022-09-05T19:55:45.134Z,95200.63
2022-09-05T19:58:19.992Z,95203.69
2022-09-05T20:01:00.467Z,95200.41
2022-09-05T20:03:38.937Z,95201.72
2022-09-05T20:06:29.004Z,95186.81
2022-09-05T20:09:09.112Z,95190.38
2022-09-05T20:11:45.088Z,95190.66
2022-09-05T20:14:19.666Z,95194.97
2022-09-05T20:16:48.164Z,95200.03
2022-09-05T20:19:29.312Z,95202.06
2022-09-05T20:21:59.319Z,95201.56
2022-09-05T20:24:47.998Z,95199.38
2022-09-05T20:27:16.983Z,95197.53
2022-09-05T20:29:54.712Z,95195.28
2022-09-05T20:32:38.770Z,95185.44
2022-09-05T20:37:54.521Z,95190.97
2022-09-05T20:43:22.128Z,95189.34
2022-09-05T20:43:27.109Z,95193.22
2022-09-05T20:43:56.585Z,95192.50
2022-09-05T20:50:26.037Z,95189.91
2022-09-05T20:54:07.603Z,95181.91
2022-09-05T20:54:23.024Z,95180.72
2022-09-05T20:55:37.828Z,95180.78
2022-09-05T20:57:48.808Z,95182.56
2022-09-05T21:00:18.108Z,95188.47
2022-09-05T21:02:54.819Z,95182.34
2022-09-05T21:05:27.711Z,95177.03
2022-09-05T21:08:23.298Z,95185.31
2022-09-05T21:10:55.652Z,95190.66
2022-09-05T21:13:26.769Z,95191.56
2022-09-05T21:15:55.127Z,95183.09
2022-09-05T21:18:33.164Z,95179.91
2022-09-05T21:21:02.768Z,95187.94
2022-09-05T21:24:17.781Z,95180.69
2022-09-05T21:26:49.920Z,95181.03
2022-09-05T21:29:27.244Z,95179.97
2022-09-05T21:32:01.627Z,95178.91
2022-09-05T21:34:32.434Z,95185.84
2022-09-05T21:37:06.579Z,95172.06
2022-09-05T21:39:40.212Z,95178.47
2022-09-05T21:43:37.495Z,95179.09
2022-09-05T21:47:41.524Z,95184.22
2022-09-05T21:47:53.125Z,95181.22
2022-09-05T21:50:31.250Z,95188.13
2022-09-05T21:53:25.334Z,95176.91
2022-09-05T21:58:40.114Z,95175.56
2022-09-05T21:59:27.092Z,95172.56
2022-09-05T22:01:46.275Z,95173.94
2022-09-05T22:04:16.753Z,95178.41
2022-09-05T22:06:48.489Z,95174.59
2022-09-05T22:09:18.779Z,95171.84
2022-09-05T22:11:50.593Z,95172.97
2022-09-05T22:14:18.626Z,95169.38
2022-09-05T22:16:47.599Z,95179.88
2022-09-05T22:19:22.673Z,95181.56
2022-09-05T22:21:51.582Z,95171.41
2022-09-05T22:24:19.885Z,95171.41
2022-09-05T22:27:10.837Z,95177.50
2022-09-05T22:29:40.712Z,95175.03
2022-09-05T22:32:08.801Z,95174.25
2022-09-05T22:34:36.518Z,95171.00
2022-09-05T22:37:04.265Z,95174.06
2022-09-05T22:39:37.447Z,95173.53
2022-09-05T22:42:10.574Z,95167.78
2022-09-05T22:44:39.861Z,95170.25
2022-09-05T22:47:09.010Z,95166.94
2022-09-05T22:49:37.412Z,95166.72
2022-09-05T22:52:06.148Z,95163.72
2022-09-05T22:54:33.912Z,95158.47
2022-09-05T22:57:02.162Z,95168.16
2022-09-05T22:59:31.370Z,95162.38
2022-09-05T23:01:59.291Z,95161.31
2022-09-05T23:04:27.107Z,95162.41
2022-09-05T23:06:54.906Z,95163.84
2022-09-05T23:09:22.846Z,95154.19
2022-09-05T23:11:50.548Z,95153.66
2022-09-05T23:14:18.248Z,95151.47
2022-09-05T23:16:47.312Z,95151.75
2022-09-05T23:19:15.037Z,95150.44
2022-09-05T23:21:42.722Z,95149.34
2022-09-05T23:24:10.443Z,95143.34
2022-09-05T23:26:38.121Z,95147.22
2022-09-05T23:29:05.884Z,95143.41
2022-09-05T23:31:33.739Z,95146.72
2022-09-05T23:34:02.850Z,95151.69
2022-09-05T23:36:31.547Z,95146.75
2022-09-05T23:38:59.709Z,95147.31
2022-09-05T23:41:27.396Z,95139.06
2022-09-05T23:43:55.224Z,95137.16
2022-09-05T23:46:22.981Z,95139.66
2022-09-05T23:48:50.901Z,95136.38
2022-09-05T23:51:20.159Z,95134.47
2022-09-05T23:53:47.863Z,95140.56
2022-09-05T23:56:15.666Z,95144.72
2022-09-05T23:58:43.429Z,95137.84
